sensor_id;sensor_type;location;lat;lon;timestamp;temperature;humidity
71039;SHT30;58692;43.212;27.908;2023-10-13T00:00:30;15.12;81.65
71039;SHT30;58692;43.212;27.908;2023-10-13T00:03:00;15.16;81.23
71039;SHT30;58692;43.212;27.908;2023-10-13T00:05:27;15.16;81.01
71039;SHT30;58692;43.212;27.908;2023-10-13T00:07:53;15.08;80.85
71039;SHT30;58692;43.212;27.908;2023-10-13T00:10:19;14.88;81.32
71039;SHT30;58692;43.212;27.908;2023-10-13T00:12:44;14.79;81.62
71039;SHT30;58692;43.212;27.908;2023-10-13T00:15:17;14.79;81.58
71039;SHT30;58692;43.212;27.908;2023-10-13T00:17:43;14.78;81.74
71039;SHT30;58692;43.212;27.908;2023-10-13T00:20:09;14.65;82.13
71039;SHT30;58692;43.212;27.908;2023-10-13T00:22:54;14.72;81.78
71039;SHT30;58692;43.212;27.908;2023-10-13T00:25:22;14.67;81.69
71039;SHT30;58692;43.212;27.908;2023-10-13T00:27:52;14.61;81.60
71039;SHT30;58692;43.212;27.908;2023-10-13T00:30:18;14.70;81.08
71039;SHT30;58692;43.212;27.908;2023-10-13T00:32:59;14.71;80.83
71039;SHT30;58692;43.212;27.908;2023-10-13T00:35:27;14.72;81.01
71039;SHT30;58692;43.212;27.908;2023-10-13T00:37:56;14.75;80.94
71039;SHT30;58692;43.212;27.908;2023-10-13T00:40:23;14.71;80.91
71039;SHT30;58692;43.212;27.908;2023-10-13T00:43:09;14.79;80.55
71039;SHT30;58692;43.212;27.908;2023-10-13T00:48:24;14.85;79.53
71039;SHT30;58692;43.212;27.908;2023-10-13T00:51:07;14.91;79.44
71039;SHT30;58692;43.212;27.908;2023-10-13T00:53:35;14.70;79.96
71039;SHT30;58692;43.212;27.908;2023-10-13T00:56:10;14.79;79.70
71039;SHT30;58692;43.212;27.908;2023-10-13T00:58:52;14.78;79.67
71039;SHT30;58692;43.212;27.908;2023-10-13T01:01:20;14.81;79.62
71039;SHT30;58692;43.212;27.908;2023-10-13T01:03:48;14.78;79.60
71039;SHT30;58692;43.212;27.908;2023-10-13T01:06:17;14.74;79.70
71039;SHT30;58692;43.212;27.908;2023-10-13T01:08:45;14.74;79.58
71039;SHT30;58692;43.212;27.908;2023-10-13T01:11:17;14.75;79.44
71039;SHT30;58692;43.212;27.908;2023-10-13T01:13:42;14.63;79.79
71039;SHT30;58692;43.212;27.908;2023-10-13T01:16:08;14.64;79.70
71039;SHT30;58692;43.212;27.908;2023-10-13T01:18:34;14.68;79.55
71039;SHT30;58692;43.212;27.908;2023-10-13T01:21:15;14.63;79.41
71039;SHT30;58692;43.212;27.908;2023-10-13T01:23:43;14.65;79.15
71039;SHT30;58692;43.212;27.908;2023-10-13T01:26:10;14.63;79.17
71039;SHT30;58692;43.212;27.908;2023-10-13T01:28:38;14.54;79.44
71039;SHT30;58692;43.212;27.908;2023-10-13T01:31:11;14.54;79.48
71039;SHT30;58692;43.212;27.908;2023-10-13T01:33:50;14.42;79.70
71039;SHT30;58692;43.212;27.908;2023-10-13T01:36:20;14.42;79.98
71039;SHT30;58692;43.212;27.908;2023-10-13T01:38:46;14.40;80.16
71039;SHT30;58692;43.212;27.908;2023-10-13T01:41:12;14.44;80.41
71039;SHT30;58692;43.212;27.908;2023-10-13T01:43:39;14.40;80.64
71039;SHT30;58692;43.212;27.908;2023-10-13T01:46:04;14.30;81.14
71039;SHT30;58692;43.212;27.908;2023-10-13T01:48:30;14.26;81.29
71039;SHT30;58692;43.212;27.908;2023-10-13T01:50:58;14.28;81.06
71039;SHT30;58692;43.212;27.908;2023-10-13T01:53:25;14.33;81.13
71039;SHT30;58692;43.212;27.908;2023-10-13T01:55:54;14.26;81.50
71039;SHT30;58692;43.212;27.908;2023-10-13T01:58:22;14.00;82.36
71039;SHT30;58692;43.212;27.908;2023-10-13T02:00:48;13.96;82.86
71039;SHT30;58692;43.212;27.908;2023-10-13T02:03:15;14.02;82.90
71039;SHT30;58692;43.212;27.908;2023-10-13T02:05:42;13.99;82.91
71039;SHT30;58692;43.212;27.908;2023-10-13T02:08:13;13.99;82.75
71039;SHT30;58692;43.212;27.908;2023-10-13T02:10:55;13.89;82.94
71039;SHT30;58692;43.212;27.908;2023-10-13T02:13:22;13.82;83.02
71039;SHT30;58692;43.212;27.908;2023-10-13T02:15:49;13.70;82.90
71039;SHT30;58692;43.212;27.908;2023-10-13T02:18:19;13.79;82.34
71039;SHT30;58692;43.212;27.908;2023-10-13T02:20:51;13.85;81.95
71039;SHT30;58692;43.212;27.908;2023-10-13T02:23:23;13.85;81.72
71039;SHT30;58692;43.212;27.908;2023-10-13T02:25:50;13.79;81.67
71039;SHT30;58692;43.212;27.908;2023-10-13T02:28:25;13.86;81.54
71039;SHT30;58692;43.212;27.908;2023-10-13T02:30:54;13.95;81.46
71039;SHT30;58692;43.212;27.908;2023-10-13T02:33:19;13.97;81.42
71039;SHT30;58692;43.212;27.908;2023-10-13T02:35:48;13.87;82.15
71039;SHT30;58692;43.212;27.908;2023-10-13T02:38:22;13.93;82.15
71039;SHT30;58692;43.212;27.908;2023-10-13T02:41:03;13.85;82.20
71039;SHT30;58692;43.212;27.908;2023-10-13T02:43:33;13.86;81.95
71039;SHT30;58692;43.212;27.908;2023-10-13T02:45:59;13.89;81.88
71039;SHT30;58692;43.212;27.908;2023-10-13T02:48:25;13.86;81.70
71039;SHT30;58692;43.212;27.908;2023-10-13T02:50:57;13.87;81.51
71039;SHT30;58692;43.212;27.908;2023-10-13T02:53:27;13.82;81.53
71039;SHT30;58692;43.212;27.908;2023-10-13T02:55:54;13.79;81.78
71039;SHT30;58692;43.212;27.908;2023-10-13T02:58:22;13.72;81.87
71039;SHT30;58692;43.212;27.908;2023-10-13T03:00:48;13.66;82.11
71039;SHT30;58692;43.212;27.908;2023-10-13T03:03:13;13.62;82.16
71039;SHT30;58692;43.212;27.908;2023-10-13T03:05:43;13.62;82.40
71039;SHT30;58692;43.212;27.908;2023-10-13T03:08:09;13.52;83.07
71039;SHT30;58692;43.212;27.908;2023-10-13T03:10:36;13.56;83.17
71039;SHT30;58692;43.212;27.908;2023-10-13T03:13:05;13.62;83.08
71039;SHT30;58692;43.212;27.908;2023-10-13T03:15:33;13.55;83.14
71039;SHT30;58692;43.212;27.908;2023-10-13T03:18:01;13.58;82.86
71039;SHT30;58692;43.212;27.908;2023-10-13T03:20:27;13.61;82.70
71039;SHT30;58692;43.212;27.908;2023-10-13T03:23:00;13.66;82.44
71039;SHT30;58692;43.212;27.908;2023-10-13T03:25:26;13.65;82.28
71039;SHT30;58692;43.212;27.908;2023-10-13T03:27:56;13.54;82.54
71039;SHT30;58692;43.212;27.908;2023-10-13T03:30:22;13.61;82.25
71039;SHT30;58692;43.212;27.908;2023-10-13T03:32:55;13.58;82.26
71039;SHT30;58692;43.212;27.908;2023-10-13T03:35:22;13.49;82.28
71039;SHT30;58692;43.212;27.908;2023-10-13T03:37:53;13.62;82.03
71039;SHT30;58692;43.212;27.908;2023-10-13T03:40:21;13.63;82.12
71039;SHT30;58692;43.212;27.908;2023-10-13T03:42:51;13.55;82.22
71039;SHT30;58692;43.212;27.908;2023-10-13T03:45:34;13.54;82.21
71039;SHT30;58692;43.212;27.908;2023-10-13T03:48:15;13.63;81.99
71039;SHT30;58692;43.212;27.908;2023-10-13T03:51:02;13.63;81.80
71039;SHT30;58692;43.212;27.908;2023-10-13T03:53:30;13.65;81.74
71039;SHT30;58692;43.212;27.908;2023-10-13T03:56:00;13.62;81.77
71039;SHT30;58692;43.212;27.908;2023-10-13T03:58:37;13.59;81.78
71039;SHT30;58692;43.212;27.908;2023-10-13T04:01:06;13.61;81.87
71039;SHT30;58692;43.212;27.908;2023-10-13T04:03:36;13.55;82.00
71039;SHT30;58692;43.212;27.908;2023-10-13T04:06:05;13.51;82.36
71039;SHT30;58692;43.212;27.908;2023-10-13T04:08:32;13.52;82.30
71039;SHT30;58692;43.212;27.908;2023-10-13T04:11:13;13.45;82.32
71039;SHT30;58692;43.212;27.908;2023-10-13T04:13:54;13.41;82.40
71039;SHT30;58692;43.212;27.908;2023-10-13T04:16:34;13.26;82.85
71039;SHT30;58692;43.212;27.908;2023-10-13T04:19:02;13.16;83.04
71039;SHT30;58692;43.212;27.908;2023-10-13T04:21:28;13.16;83.06
71039;SHT30;58692;43.212;27.908;2023-10-13T04:24:10;13.16;83.04
71039;SHT30;58692;43.212;27.908;2023-10-13T04:26:53;13.14;82.93
71039;SHT30;58692;43.212;27.908;2023-10-13T04:29:34;13.16;82.79
71039;SHT30;58692;43.212;27.908;2023-10-13T04:32:21;13.18;82.67
71039;SHT30;58692;43.212;27.908;2023-10-13T04:34:55;13.11;82.57
71039;SHT30;58692;43.212;27.908;2023-10-13T04:37:29;13.16;82.54
71039;SHT30;58692;43.212;27.908;2023-10-13T04:39:57;13.28;82.21
71039;SHT30;58692;43.212;27.908;2023-10-13T04:42:25;13.29;82.02
71039;SHT30;58692;43.212;27.908;2023-10-13T04:45:07;13.24;82.10
71039;SHT30;58692;43.212;27.908;2023-10-13T04:47:52;13.19;82.22
71039;SHT30;58692;43.212;27.908;2023-10-13T04:50:22;13.16;82.41
71039;SHT30;58692;43.212;27.908;2023-10-13T04:52:53;13.24;82.06
71039;SHT30;58692;43.212;27.908;2023-10-13T04:55:34;13.18;82.08
71039;SHT30;58692;43.212;27.908;2023-10-13T04:58:00;13.22;82.15
71039;SHT30;58692;43.212;27.908;2023-10-13T05:00:37;13.32;81.78
71039;SHT30;58692;43.212;27.908;2023-10-13T05:03:17;13.31;81.90
71039;SHT30;58692;43.212;27.908;2023-10-13T05:05:58;13.48;81.52
71039;SHT30;58692;43.212;27.908;2023-10-13T05:08:39;13.54;81.66
71039;SHT30;58692;43.212;27.908;2023-10-13T05:11:20;13.82;80.88
71039;SHT30;58692;43.212;27.908;2023-10-13T05:14:01;13.90;80.40
71039;SHT30;58692;43.212;27.908;2023-10-13T05:16:42;14.09;79.54
71039;SHT30;58692;43.212;27.908;2023-10-13T05:19:27;14.40;78.65
71039;SHT30;58692;43.212;27.908;2023-10-13T05:22:08;14.51;78.12
71039;SHT30;58692;43.212;27.908;2023-10-13T05:24:51;14.72;77.33
71039;SHT30;58692;43.212;27.908;2023-10-13T05:27:35;14.89;76.70
71039;SHT30;58692;43.212;27.908;2023-10-13T05:30:17;15.08;75.78
71039;SHT30;58692;43.212;27.908;2023-10-13T05:32:58;15.40;74.87
71039;SHT30;58692;43.212;27.908;2023-10-13T05:35:40;15.90;73.66
71039;SHT30;58692;43.212;27.908;2023-10-13T05:38:21;16.17;72.75
71039;SHT30;58692;43.212;27.908;2023-10-13T05:41:16;16.31;71.82
71039;SHT30;58692;43.212;27.908;2023-10-13T05:43:57;16.66;70.75
71039;SHT30;58692;43.212;27.908;2023-10-13T05:46:38;16.48;71.13
71039;SHT30;58692;43.212;27.908;2023-10-13T05:49:05;16.69;70.50
71039;SHT30;58692;43.212;27.908;2023-10-13T05:51:46;17.34;69.13
71039;SHT30;58692;43.212;27.908;2023-10-13T05:54:27;17.41;68.73
71039;SHT30;58692;43.212;27.908;2023-10-13T05:57:08;17.43;68.54
71039;SHT30;58692;43.212;27.908;2023-10-13T05:59:51;18.04;67.47
71039;SHT30;58692;43.212;27.908;2023-10-13T06:02:32;18.21;66.80
71039;SHT30;58692;43.212;27.908;2023-10-13T06:05:13;18.15;66.72
71039;SHT30;58692;43.212;27.908;2023-10-13T06:07:57;18.69;65.19
71039;SHT30;58692;43.212;27.908;2023-10-13T06:10:38;18.99;64.84
71039;SHT30;58692;43.212;27.908;2023-10-13T06:13:19;19.38;63.93
71039;SHT30;58692;43.212;27.908;2023-10-13T06:16:05;19.48;63.75
71039;SHT30;58692;43.212;27.908;2023-10-13T06:18:49;19.90;62.73
71039;SHT30;58692;43.212;27.908;2023-10-13T06:21:30;20.19;62.19
71039;SHT30;58692;43.212;27.908;2023-10-13T06:24:10;20.70;61.02
71039;SHT30;58692;43.212;27.908;2023-10-13T06:26:51;20.77;60.67
71039;SHT30;58692;43.212;27.908;2023-10-13T06:29:34;21.12;59.91
71039;SHT30;58692;43.212;27.908;2023-10-13T06:32:00;21.07;59.71
71039;SHT30;58692;43.212;27.908;2023-10-13T06:34:30;20.94;59.68
71039;SHT30;58692;43.212;27.908;2023-10-13T06:37:13;21.35;59.03
71039;SHT30;58692;43.212;27.908;2023-10-13T06:39:55;21.48;58.42
71039;SHT30;58692;43.212;27.908;2023-10-13T06:42:23;22.00;57.20
71039;SHT30;58692;43.212;27.908;2023-10-13T06:44:53;22.17;56.99
71039;SHT30;58692;43.212;27.908;2023-10-13T06:47:22;22.57;55.78
71039;SHT30;58692;43.212;27.908;2023-10-13T06:49:50;22.74;55.09
71039;SHT30;58692;43.212;27.908;2023-10-13T06:52:17;22.70;55.34
71039;SHT30;58692;43.212;27.908;2023-10-13T06:54:43;23.04;54.64
71039;SHT30;58692;43.212;27.908;2023-10-13T06:57:09;23.16;54.10
71039;SHT30;58692;43.212;27.908;2023-10-13T06:59:40;23.42;53.58
71039;SHT30;58692;43.212;27.908;2023-10-13T07:02:07;23.63;53.09
71039;SHT30;58692;43.212;27.908;2023-10-13T07:04:36;23.63;53.21
71039;SHT30;58692;43.212;27.908;2023-10-13T07:07:05;24.20;52.35
71039;SHT30;58692;43.212;27.908;2023-10-13T07:09:36;23.49;53.56
71039;SHT30;58692;43.212;27.908;2023-10-13T07:12:03;24.23;52.14
71039;SHT30;58692;43.212;27.908;2023-10-13T07:14:33;24.74;51.48
71039;SHT30;58692;43.212;27.908;2023-10-13T07:17:05;24.34;52.25
71039;SHT30;58692;43.212;27.908;2023-10-13T07:19:54;24.43;51.81
71039;SHT30;58692;43.212;27.908;2023-10-13T07:22:34;24.12;52.04
71039;SHT30;58692;43.212;27.908;2023-10-13T07:25:05;24.85;50.70
71039;SHT30;58692;43.212;27.908;2023-10-13T07:27:32;24.34;51.54
71039;SHT30;58692;43.212;27.908;2023-10-13T07:30:01;24.99;50.74
71039;SHT30;58692;43.212;27.908;2023-10-13T07:32:42;25.32;50.24
71039;SHT30;58692;43.212;27.908;2023-10-13T07:35:12;25.51;50.31
71039;SHT30;58692;43.212;27.908;2023-10-13T07:37:41;25.84;49.74
71039;SHT30;58692;43.212;27.908;2023-10-13T07:40:08;25.35;50.81
71039;SHT30;58692;43.212;27.908;2023-10-13T07:42:47;25.50;50.46
71039;SHT30;58692;43.212;27.908;2023-10-13T07:45:21;26.05;48.89
71039;SHT30;58692;43.212;27.908;2023-10-13T07:47:51;25.50;49.65
71039;SHT30;58692;43.212;27.908;2023-10-13T07:50:17;25.74;49.41
71039;SHT30;58692;43.212;27.908;2023-10-13T07:52:51;25.46;49.63
71039;SHT30;58692;43.212;27.908;2023-10-13T07:55:24;26.10;48.17
71039;SHT30;58692;43.212;27.908;2023-10-13T07:57:50;26.55;47.64
71039;SHT30;58692;43.212;27.908;2023-10-13T08:00:20;25.63;48.62
71039;SHT30;58692;43.212;27.908;2023-10-13T08:03:01;26.47;47.38
71039;SHT30;58692;43.212;27.908;2023-10-13T08:05:44;26.89;46.31
71039;SHT30;58692;43.212;27.908;2023-10-13T08:08:25;27.10;45.96
71039;SHT30;58692;43.212;27.908;2023-10-13T08:10:52;27.07;46.39
71039;SHT30;58692;43.212;27.908;2023-10-13T08:13:26;27.44;45.48
71039;SHT30;58692;43.212;27.908;2023-10-13T08:15:52;27.53;45.24
71039;SHT30;58692;43.212;27.908;2023-10-13T08:18:18;26.92;46.41
71039;SHT30;58692;43.212;27.908;2023-10-13T08:21:01;27.34;44.70
71039;SHT30;58692;43.212;27.908;2023-10-13T08:23:39;27.90;44.17
71039;SHT30;58692;43.212;27.908;2023-10-13T08:29:05;28.35;42.49
71039;SHT30;58692;43.212;27.908;2023-10-13T08:31:47;28.76;41.90
71039;SHT30;58692;43.212;27.908;2023-10-13T08:34:28;29.17;41.23
71039;SHT30;58692;43.212;27.908;2023-10-13T08:36:55;28.36;41.81
71039;SHT30;58692;43.212;27.908;2023-10-13T08:39:21;27.98;42.29
71039;SHT30;58692;43.212;27.908;2023-10-13T08:42:02;28.87;41.68
71039;SHT30;58692;43.212;27.908;2023-10-13T08:51:03;29.07;40.45
71039;SHT30;58692;43.212;27.908;2023-10-13T08:53:35;28.56;41.28
71039;SHT30;58692;43.212;27.908;2023-10-13T08:56:34;28.68;41.25
71039;SHT30;58692;43.212;27.908;2023-10-13T08:59:08;28.73;40.61
71039;SHT30;58692;43.212;27.908;2023-10-13T09:01:36;29.06;40.67
71039;SHT30;58692;43.212;27.908;2023-10-13T09:04:18;29.10;40.09
71039;SHT30;58692;43.212;27.908;2023-10-13T09:06:59;29.74;39.59
71039;SHT30;58692;43.212;27.908;2023-10-13T09:09:27;28.78;40.35
71039;SHT30;58692;43.212;27.908;2023-10-13T09:12:02;29.31;39.85
71039;SHT30;58692;43.212;27.908;2023-10-13T09:14:37;30.18;38.21
71039;SHT30;58692;43.212;27.908;2023-10-13T09:17:06;29.85;38.90
71039;SHT30;58692;43.212;27.908;2023-10-13T09:19:51;29.84;39.04
71039;SHT30;58692;43.212;27.908;2023-10-13T09:22:28;30.35;38.20
71039;SHT30;58692;43.212;27.908;2023-10-13T09:25:02;29.16;42.50
71039;SHT30;58692;43.212;27.908;2023-10-13T09:27:31;27.19;47.80
71039;SHT30;58692;43.212;27.908;2023-10-13T09:29:58;27.27;47.77
71039;SHT30;58692;43.212;27.908;2023-10-13T09:32:32;27.27;48.94
71039;SHT30;58692;43.212;27.908;2023-10-13T09:35:20;27.24;49.35
71039;SHT30;58692;43.212;27.908;2023-10-13T09:37:51;26.81;50.12
71039;SHT30;58692;43.212;27.908;2023-10-13T09:40:17;26.98;49.90
71039;SHT30;58692;43.212;27.908;2023-10-13T09:42:52;27.07;50.11
71039;SHT30;58692;43.212;27.908;2023-10-13T09:45:26;27.06;49.97
71039;SHT30;58692;43.212;27.908;2023-10-13T09:47:58;27.55;48.39
71039;SHT30;58692;43.212;27.908;2023-10-13T09:50:27;27.29;49.80
71039;SHT30;58692;43.212;27.908;2023-10-13T09:53:00;27.39;49.55
71039;SHT30;58692;43.212;27.908;2023-10-13T09:55:30;27.63;49.80
71039;SHT30;58692;43.212;27.908;2023-10-13T09:58:03;27.80;49.24
71039;SHT30;58692;43.212;27.908;2023-10-13T10:00:44;27.60;49.50
71039;SHT30;58692;43.212;27.908;2023-10-13T10:03:13;27.36;49.28
71039;SHT30;58692;43.212;27.908;2023-10-13T10:05:56;27.13;49.71
71039;SHT30;58692;43.212;27.908;2023-10-13T10:08:33;26.63;50.22
71039;SHT30;58692;43.212;27.908;2023-10-13T10:13:39;25.43;51.28
71039;SHT30;58692;43.212;27.908;2023-10-13T10:16:13;24.57;53.19
71039;SHT30;58692;43.212;27.908;2023-10-13T10:18:45;23.99;54.75
71039;SHT30;58692;43.212;27.908;2023-10-13T10:21:11;23.72;56.34
71039;SHT30;58692;43.212;27.908;2023-10-13T10:23:40;23.90;56.69
71039;SHT30;58692;43.212;27.908;2023-10-13T10:26:12;24.27;56.47
71039;SHT30;58692;43.212;27.908;2023-10-13T10:28:42;24.35;56.06
71039;SHT30;58692;43.212;27.908;2023-10-13T10:31:10;25.09;54.99
71039;SHT30;58692;43.212;27.908;2023-10-13T10:33:39;24.61;54.87
71039;SHT30;58692;43.212;27.908;2023-10-13T10:36:05;25.32;52.89
71039;SHT30;58692;43.212;27.908;2023-10-13T10:38:34;25.49;53.28
71039;SHT30;58692;43.212;27.908;2023-10-13T10:41:32;25.87;52.81
71039;SHT30;58692;43.212;27.908;2023-10-13T10:44:13;26.27;51.73
71039;SHT30;58692;43.212;27.908;2023-10-13T10:46:48;26.47;50.07
71039;SHT30;58692;43.212;27.908;2023-10-13T10:49:38;26.42;49.22
71039;SHT30;58692;43.212;27.908;2023-10-13T10:52:03;26.56;47.35
71039;SHT30;58692;43.212;27.908;2023-10-13T10:54:33;27.44;46.18
71039;SHT30;58692;43.212;27.908;2023-10-13T10:56:59;27.78;44.32
71039;SHT30;58692;43.212;27.908;2023-10-13T10:59:37;26.79;44.67
71039;SHT30;58692;43.212;27.908;2023-10-13T11:02:02;26.83;46.45
71039;SHT30;58692;43.212;27.908;2023-10-13T11:04:28;26.34;48.19
71039;SHT30;58692;43.212;27.908;2023-10-13T11:06:59;25.91;48.57
71039;SHT30;58692;43.212;27.908;2023-10-13T11:09:27;25.35;49.40
71039;SHT30;58692;43.212;27.908;2023-10-13T11:14:48;25.50;50.08
71039;SHT30;58692;43.212;27.908;2023-10-13T11:17:20;25.74;48.40
71039;SHT30;58692;43.212;27.908;2023-10-13T11:19:54;25.04;51.74
71039;SHT30;58692;43.212;27.908;2023-10-13T11:22:21;24.74;52.96
71039;SHT30;58692;43.212;27.908;2023-10-13T11:25:04;25.23;50.86
71039;SHT30;58692;43.212;27.908;2023-10-13T11:27:41;24.95;51.65
71039;SHT30;58692;43.212;27.908;2023-10-13T11:30:26;24.98;52.64
71039;SHT30;58692;43.212;27.908;2023-10-13T11:35:24;25.29;53.04
71039;SHT30;58692;43.212;27.908;2023-10-13T11:37:50;24.58;54.25
71039;SHT30;58692;43.212;27.908;2023-10-13T11:40:29;23.90;55.12
71039;SHT30;58692;43.212;27.908;2023-10-13T11:43:11;23.49;56.77
71039;SHT30;58692;43.212;27.908;2023-10-13T11:45:40;23.25;56.70
71039;SHT30;58692;43.212;27.908;2023-10-13T11:48:21;23.39;56.84
71039;SHT30;58692;43.212;27.908;2023-10-13T11:51:02;23.46;57.09
71039;SHT30;58692;43.212;27.908;2023-10-13T11:53:42;23.19;58.00
71039;SHT30;58692;43.212;27.908;2023-10-13T11:56:09;23.04;59.07
71039;SHT30;58692;43.212;27.908;2023-10-13T11:58:40;23.53;57.79
71039;SHT30;58692;43.212;27.908;2023-10-13T12:01:06;23.48;56.74
71039;SHT30;58692;43.212;27.908;2023-10-13T12:03:51;23.26;57.79
71039;SHT30;58692;43.212;27.908;2023-10-13T12:06:34;23.01;58.36
71039;SHT30;58692;43.212;27.908;2023-10-13T12:08:59;22.80;60.47
71039;SHT30;58692;43.212;27.908;2023-10-13T12:11:40;22.68;62.21
71039;SHT30;58692;43.212;27.908;2023-10-13T12:14:08;22.46;63.46
71039;SHT30;58692;43.212;27.908;2023-10-13T12:16:43;22.36;64.05
71039;SHT30;58692;43.212;27.908;2023-10-13T12:19:15;22.47;63.59
71039;SHT30;58692;43.212;27.908;2023-10-13T12:21:43;22.56;63.22
71039;SHT30;58692;43.212;27.908;2023-10-13T12:24:09;22.60;63.37
71039;SHT30;58692;43.212;27.908;2023-10-13T12:26:41;22.58;63.78
71039;SHT30;58692;43.212;27.908;2023-10-13T12:29:08;22.91;63.38
71039;SHT30;58692;43.212;27.908;2023-10-13T12:31:44;23.08;62.79
71039;SHT30;58692;43.212;27.908;2023-10-13T12:34:16;22.88;63.39
71039;SHT30;58692;43.212;27.908;2023-10-13T12:36:56;22.41;64.15
71039;SHT30;58692;43.212;27.908;2023-10-13T12:39:31;22.33;64.91
71039;SHT30;58692;43.212;27.908;2023-10-13T12:42:11;22.13;65.02
71039;SHT30;58692;43.212;27.908;2023-10-13T12:44:52;22.24;65.21
71039;SHT30;58692;43.212;27.908;2023-10-13T12:47:38;22.20;65.74
71039;SHT30;58692;43.212;27.908;2023-10-13T12:50:18;22.10;65.97
71039;SHT30;58692;43.212;27.908;2023-10-13T12:52:59;22.09;66.15
71039;SHT30;58692;43.212;27.908;2023-10-13T12:55:25;21.99;66.85
71039;SHT30;58692;43.212;27.908;2023-10-13T12:57:51;21.90;67.26
71039;SHT30;58692;43.212;27.908;2023-10-13T13:00:17;21.99;67.50
71039;SHT30;58692;43.212;27.908;2023-10-13T13:02:46;21.95;67.45
71039;SHT30;58692;43.212;27.908;2023-10-13T13:05:12;21.93;67.67
71039;SHT30;58692;43.212;27.908;2023-10-13T13:07:39;21.96;67.53
71039;SHT30;58692;43.212;27.908;2023-10-13T13:10:20;22.00;67.15
71039;SHT30;58692;43.212;27.908;2023-10-13T13:13:00;21.99;67.25
71039;SHT30;58692;43.212;27.908;2023-10-13T13:15:26;21.76;67.44
71039;SHT30;58692;43.212;27.908;2023-10-13T13:17:51;21.79;68.16
71039;SHT30;58692;43.212;27.908;2023-10-13T13:20:17;21.81;68.50
71039;SHT30;58692;43.212;27.908;2023-10-13T13:22:57;21.76;68.31
71039;SHT30;58692;43.212;27.908;2023-10-13T13:25:29;21.78;68.18
71039;SHT30;58692;43.212;27.908;2023-10-13T13:27:56;21.79;67.14
71039;SHT30;58692;43.212;27.908;2023-10-13T13:30:24;21.85;67.82
71039;SHT30;58692;43.212;27.908;2023-10-13T13:32:55;21.90;67.46
71039;SHT30;58692;43.212;27.908;2023-10-13T13:35:21;22.06;67.54
71039;SHT30;58692;43.212;27.908;2023-10-13T13:37:47;22.05;67.83
71039;SHT30;58692;43.212;27.908;2023-10-13T13:40:12;21.95;68.32
71039;SHT30;58692;43.212;27.908;2023-10-13T13:42:44;22.05;68.05
71039;SHT30;58692;43.212;27.908;2023-10-13T13:45:15;21.96;68.53
71039;SHT30;58692;43.212;27.908;2023-10-13T13:48:00;21.99;68.19
71039;SHT30;58692;43.212;27.908;2023-10-13T13:50:29;21.79;69.16
71039;SHT30;58692;43.212;27.908;2023-10-13T13:52:56;21.76;69.22
71039;SHT30;58692;43.212;27.908;2023-10-13T13:55:22;21.82;69.49
71039;SHT30;58692;43.212;27.908;2023-10-13T13:57:49;21.90;69.57
71039;SHT30;58692;43.212;27.908;2023-10-13T14:00:17;21.76;70.14
71039;SHT30;58692;43.212;27.908;2023-10-13T14:02:48;21.72;70.57
71039;SHT30;58692;43.212;27.908;2023-10-13T14:05:17;21.48;71.75
71039;SHT30;58692;43.212;27.908;2023-10-13T14:07:44;21.39;72.12
71039;SHT30;58692;43.212;27.908;2023-10-13T14:10:19;21.48;72.02
71039;SHT30;58692;43.212;27.908;2023-10-13T14:13:00;21.42;72.08
71039;SHT30;58692;43.212;27.908;2023-10-13T14:15:41;21.46;71.98
71039;SHT30;58692;43.212;27.908;2023-10-13T14:18:11;21.59;71.53
71039;SHT30;58692;43.212;27.908;2023-10-13T14:20:41;21.61;71.27
71039;SHT30;58692;43.212;27.908;2023-10-13T14:23:08;21.66;71.02
71039;SHT30;58692;43.212;27.908;2023-10-13T14:25:40;21.48;71.30
71039;SHT30;58692;43.212;27.908;2023-10-13T14:28:10;21.48;71.41
71039;SHT30;58692;43.212;27.908;2023-10-13T14:30:36;21.46;71.55
71039;SHT30;58692;43.212;27.908;2023-10-13T14:33:02;21.49;71.39
71039;SHT30;58692;43.212;27.908;2023-10-13T14:35:28;21.44;71.65
71039;SHT30;58692;43.212;27.908;2023-10-13T14:37:54;21.38;72.13
71039;SHT30;58692;43.212;27.908;2023-10-13T14:40:20;21.58;71.84
71039;SHT30;58692;43.212;27.908;2023-10-13T14:42:47;21.49;71.90
71039;SHT30;58692;43.212;27.908;2023-10-13T14:45:14;21.42;72.29
71039;SHT30;58692;43.212;27.908;2023-10-13T14:47:42;21.37;72.80
71039;SHT30;58692;43.212;27.908;2023-10-13T14:50:09;21.25;73.12
71039;SHT30;58692;43.212;27.908;2023-10-13T14:52:45;21.28;73.17
71039;SHT30;58692;43.212;27.908;2023-10-13T14:55:11;21.49;72.45
71039;SHT30;58692;43.212;27.908;2023-10-13T14:57:46;21.55;72.03
71039;SHT30;58692;43.212;27.908;2023-10-13T15:00:13;21.54;72.02
71039;SHT30;58692;43.212;27.908;2023-10-13T15:02:40;21.45;72.17
71039;SHT30;58692;43.212;27.908;2023-10-13T15:05:10;21.49;72.22
71039;SHT30;58692;43.212;27.908;2023-10-13T15:07:43;21.48;72.28
71039;SHT30;58692;43.212;27.908;2023-10-13T15:10:15;21.41;72.50
71039;SHT30;58692;43.212;27.908;2023-10-13T15:12:44;21.56;72.10
71039;SHT30;58692;43.212;27.908;2023-10-13T15:15:11;21.61;72.12
71039;SHT30;58692;43.212;27.908;2023-10-13T15:17:42;21.49;72.50
71039;SHT30;58692;43.212;27.908;2023-10-13T15:20:08;21.48;72.60
71039;SHT30;58692;43.212;27.908;2023-10-13T15:22:42;21.56;72.45
71039;SHT30;58692;43.212;27.908;2023-10-13T15:25:07;21.45;72.75
71039;SHT30;58692;43.212;27.908;2023-10-13T15:27:42;21.42;72.86
71039;SHT30;58692;43.212;27.908;2023-10-13T15:30:10;21.35;73.03
71039;SHT30;58692;43.212;27.908;2023-10-13T15:32:46;21.22;73.42
71039;SHT30;58692;43.212;27.908;2023-10-13T15:35:13;21.30;73.23
71039;SHT30;58692;43.212;27.908;2023-10-13T15:37:39;21.31;73.24
71039;SHT30;58692;43.212;27.908;2023-10-13T15:40:06;21.22;73.60
71039;SHT30;58692;43.212;27.908;2023-10-13T15:42:35;21.20;73.64
71039;SHT30;58692;43.212;27.908;2023-10-13T15:45:06;21.24;73.54
71039;SHT30;58692;43.212;27.908;2023-10-13T15:47:43;21.39;73.15
71039;SHT30;58692;43.212;27.908;2023-10-13T15:50:13;21.45;73.05
71039;SHT30;58692;43.212;27.908;2023-10-13T15:52:42;21.58;72.60
71039;SHT30;58692;43.212;27.908;2023-10-13T15:55:12;21.67;72.24
71039;SHT30;58692;43.212;27.908;2023-10-13T15:57:39;21.76;71.97
71039;SHT30;58692;43.212;27.908;2023-10-13T16:00:09;21.72;71.87
71039;SHT30;58692;43.212;27.908;2023-10-13T16:02:52;21.81;71.66
71039;SHT30;58692;43.212;27.908;2023-10-13T16:05:20;21.85;71.45
71039;SHT30;58692;43.212;27.908;2023-10-13T16:07:52;21.86;71.44